Time;durP1;ratioP1;P1;durP2;ratioP2;P2;SDS_P1;SDS_P2;PMS_P1;PMS_P2;Temp;Humidity;BMP_temperature;BMP_pressure;BME280_temperature;BME280_humidity;BME280_pressure;Samples;Min_cycle;Max_cycle;Signal;HPM_P1;HPM_P2
2022/03/01 00:00:04;;;;;;;21.48;10.23;;;;;;;4.96;52.72;101325.47;5022043;28;20056;-81
2022/03/01 00:02:37;;;;;;;24.40;10.70;;;;;;;4.95;53.10;101322.91;5011039;28;20061;-82
2022/03/01 00:05:05;;;;;;;22.38;10.68;;;;;;;4.93;52.81;101320.31;5023007;28;20119;-81
2022/03/01 00:07:31;;;;;;;24.25;11.43;;;;;;;4.94;53.25;101327.31;5009451;28;20044;-82
2022/03/01 00:09:58;;;;;;;37.97;14.77;;;;;;;4.95;52.39;101320.25;5005557;28;20403;-81
2022/03/01 00:12:25;;;;;;;26.20;11.45;;;;;;;4.93;52.82;101319.47;5035096;28;20047;-81
2022/03/01 00:14:52;;;;;;;28.90;12.40;;;;;;;4.91;52.72;101322.19;5005124;28;20052;-81
2022/03/01 00:17:20;;;;;;;33.22;12.93;;;;;;;4.91;52.58;101326.56;4998709;28;20140;-82
2022/03/01 00:19:47;;;;;;;29.23;12.32;;;;;;;4.90;52.89;101325.72;5010404;28;20044;-81
2022/03/01 00:22:14;;;;;;;39.03;13.68;;;;;;;4.89;52.41;101331.06;4988917;28;20492;-82
2022/03/01 00:24:40;;;;;;;30.30;12.40;;;;;;;4.88;52.59;101327.53;5008228;28;20071;-82
2022/03/01 00:27:07;;;;;;;26.83;11.05;;;;;;;4.88;52.65;101329.31;5005662;28;20438;-82
2022/03/01 00:29:34;;;;;;;25.65;11.38;;;;;;;4.87;52.29;101325.84;5025866;28;20448;-82
2022/03/01 00:32:01;;;;;;;32.53;13.25;;;;;;;4.85;52.11;101321.56;4993754;28;20051;-83
2022/03/01 00:34:28;;;;;;;31.23;11.63;;;;;;;4.84;52.56;101320.72;4994545;28;20044;-81
2022/03/01 00:36:54;;;;;;;21.30;10.77;;;;;;;4.84;52.05;101325.13;5024135;28;20510;-81
2022/03/01 00:39:23;;;;;;;28.23;12.18;;;;;;;4.81;52.21;101310.31;5022322;28;20049;-82
2022/03/01 00:41:50;;;;;;;26.45;11.65;;;;;;;4.80;52.66;101321.75;4982567;28;20404;-82
2022/03/01 00:44:17;;;;;;;24.73;10.02;;;;;;;4.81;52.40;101322.59;5001812;28;20040;-82
2022/03/01 00:46:44;;;;;;;29.67;11.00;;;;;;;4.79;52.17;101320.03;4978558;28;20034;-81
2022/03/01 00:49:11;;;;;;;27.33;11.50;;;;;;;4.78;52.47;101313.03;5020092;28;20151;-82
2022/03/01 00:51:37;;;;;;;29.38;12.18;;;;;;;4.77;53.03;101320.09;5025462;28;20447;-81
2022/03/01 00:54:04;;;;;;;25.08;12.02;;;;;;;4.77;52.04;101322.72;5008867;28;20550;-82
2022/03/01 00:56:31;;;;;;;27.27;11.13;;;;;;;4.74;52.05;101317.59;5021527;28;20044;-82
2022/03/01 00:58:58;;;;;;;28.98;11.98;;;;;;;4.73;52.58;101320.28;5023092;28;20092;-81
2022/03/01 01:01:25;;;;;;;24.13;11.48;;;;;;;4.70;52.86;101321.25;5019021;28;20047;-82
2022/03/01 01:03:52;;;;;;;27.85;11.70;;;;;;;4.69;52.18;101310.81;4999539;28;20052;-81
2022/03/01 01:06:19;;;;;;;22.73;9.80;;;;;;;4.67;52.40;101308.22;5005427;28;20041;-81
2022/03/01 01:08:46;;;;;;;27.35;12.32;;;;;;;4.68;52.28;101301.19;5018626;28;20103;-82
2022/03/01 01:11:13;;;;;;;26.55;12.10;;;;;;;4.68;52.38;101301.19;5034678;28;20047;-82
2022/03/01 01:13:40;;;;;;;22.80;10.43;;;;;;;4.68;52.34;101309.06;5007612;28;20054;-82
2022/03/01 01:16:06;;;;;;;24.17;10.25;;;;;;;4.67;52.62;101292.44;5011045;28;20045;-82
2022/03/01 01:18:33;;;;;;;27.30;11.82;;;;;;;4.67;52.29;101300.34;5004708;28;20060;-81
2022/03/01 01:21:00;;;;;;;25.50;10.70;;;;;;;4.65;52.56;101307.44;5006666;28;20384;-82
2022/03/01 01:23:27;;;;;;;27.88;11.88;;;;;;;4.64;52.42;101299.63;5022770;28;20056;-82
2022/03/01 01:25:54;;;;;;;28.52;12.18;;;;;;;4.63;51.79;101300.50;4992639;28;20143;-82
2022/03/01 01:28:21;;;;;;;23.55;11.50;;;;;;;4.61;52.28;101305.00;5007552;28;20055;-82
2022/03/01 01:30:48;;;;;;;22.83;11.18;;;;;;;4.57;52.27;101305.09;5031861;28;20037;-81
2022/03/01 01:33:15;;;;;;;28.30;10.40;;;;;;;4.55;52.74;101306.97;4994348;28;20041;-82
2022/03/01 01:35:42;;;;;;;24.35;10.45;;;;;;;4.54;52.37;101299.97;4987819;28;20041;-81
2022/03/01 01:38:08;;;;;;;25.25;10.75;;;;;;;4.52;51.91;101298.31;5006183;28;20051;-84
2022/03/01 01:40:35;;;;;;;26.20;10.93;;;;;;;4.50;52.23;101298.41;5008133;28;20045;-81
2022/03/01 01:43:04;;;;;;;24.15;10.38;;;;;;;4.49;52.58;101294.03;4995502;28;20059;-81
2022/03/01 01:45:31;;;;;;;22.50;10.13;;;;;;;4.49;52.34;101295.81;5010119;28;20607;-82
2022/03/01 01:47:59;;;;;;;20.05;9.77;;;;;;;4.48;52.40;101294.13;5027925;28;20381;-81
2022/03/01 01:50:27;;;;;;;22.42;10.50;;;;;;;4.46;52.38;101294.16;5000817;28;20044;-82
2022/03/01 01:52:54;;;;;;;21.92;9.77;;;;;;;4.45;52.50;101295.09;5002453;28;20442;-82
2022/03/01 01:55:23;;;;;;;22.17;10.70;;;;;;;4.42;52.48;101304.84;5009542;28;20094;-82
2022/03/01 01:57:55;;;;;;;;;;;;;;;4.24;53.54;101309.91;5007649;28;20090;-82
2022/03/01 02:00:23;;;;;;;18.65;10.02;;;;;;;4.32;52.91;101309.63;5008540;28;20383;-82
2022/03/01 02:02:50;;;;;;;21.92;9.95;;;;;;;4.32;52.82;101306.97;5020989;28;20045;-82
2022/03/01 02:05:17;;;;;;;22.63;9.93;;;;;;;4.30;52.77;101306.19;5021213;28;20041;-82
2022/03/01 02:07:49;;;;;;;26.58;10.98;;;;;;;4.28;53.20;101308.03;5019011;28;20045;-82
2022/03/01 02:10:16;;;;;;;25.60;10.75;;;;;;;4.27;52.73;101311.56;5022003;28;20119;-82
2022/03/01 02:12:46;;;;;;;25.77;11.13;;;;;;;4.24;52.97;101312.53;5014961;28;20047;-81
2022/03/01 02:15:13;;;;;;;21.75;10.20;;;;;;;4.24;53.05;101312.53;5003328;28;20098;-81
2022/03/01 02:17:41;;;;;;;22.80;10.10;;;;;;;4.22;52.89;101310.88;5016068;28;20046;-82
2022/03/01 02:20:29;;;;;;;26.27;10.63;;;;;;;4.20;53.02;101304.81;5008003;28;20081;-81
2022/03/01 02:22:56;;;;;;;23.75;9.85;;;;;;;4.16;52.51;101308.50;4979807;28;20041;-82
2022/03/01 02:25:23;;;;;;;27.15;11.50;;;;;;;4.14;52.60;101317.28;5027098;28;20122;-81
2022/03/01 02:27:51;;;;;;;22.55;10.70;;;;;;;4.13;53.02;101309.47;5042308;28;20052;-81
2022/03/01 02:30:19;;;;;;;27.77;11.55;;;;;;;4.11;53.11;101308.69;5011595;28;20049;-82
2022/03/01 02:32:46;;;;;;;29.88;13.07;;;;;;;4.08;53.11;101304.41;4998019;28;20045;-82
2022/03/01 02:35:15;;;;;;;30.48;13.13;;;;;;;4.08;53.23;101309.66;5016336;28;20408;-82
2022/03/01 02:37:42;;;;;;;29.52;12.50;;;;;;;4.07;53.49;101307.06;5034000;28;20036;-82
2022/03/01 02:40:10;;;;;;;23.33;11.27;;;;;;;4.05;53.57;101299.25;5008181;28;20131;-81
2022/03/01 02:42:37;;;;;;;25.27;10.57;;;;;;;4.04;53.48;101302.78;5014225;28;20610;-82
2022/03/01 02:45:06;;;;;;;26.88;11.35;;;;;;;4.03;53.33;101305.47;5019589;28;20127;-82
2022/03/01 02:47:37;;;;;;;23.98;11.10;;;;;;;4.01;53.47;101299.44;4994631;28;20055;-82
2022/03/01 02:50:05;;;;;;;26.83;10.75;;;;;;;4.01;53.50;101295.03;4990012;28;20168;-82
2022/03/01 02:52:33;;;;;;;23.33;10.15;;;;;;;3.99;53.34;101296.00;4994535;28;20064;-82
2022/03/01 02:54:59;;;;;;;26.98;10.10;;;;;;;3.99;53.36;101290.72;5007360;28;20036;-82
2022/03/01 02:57:27;;;;;;;23.95;10.70;;;;;;;3.98;53.19;101292.50;5017524;28;20060;-82
2022/03/01 02:59:54;;;;;;;22.77;10.43;;;;;;;3.95;53.63;101287.38;5028201;28;20044;-81
2022/03/01 03:02:21;;;;;;;22.40;10.82;;;;;;;3.95;53.20;101291.78;5044523;28;20051;-82
2022/03/01 03:04:48;;;;;;;23.10;9.88;;;;;;;3.92;53.19;101295.38;4994206;28;20442;-82
2022/03/01 03:07:16;;;;;;;21.20;9.93;;;;;;;3.91;52.73;101288.41;5007639;28;20119;-81
2022/03/01 03:09:43;;;;;;;25.38;9.93;;;;;;;3.89;52.66;101298.09;5020547;28;20511;-82
2022/03/01 03:12:10;;;;;;;19.15;9.23;;;;;;;3.88;52.97;101291.16;5025029;28;20052;-82
2022/03/01 03:14:37;;;;;;;24.55;10.23;;;;;;;3.87;52.86;101295.56;4991980;28;20480;-81
2022/03/01 03:17:04;;;;;;;22.10;9.80;;;;;;;3.84;53.10;101293.03;4991481;28;20041;-82
2022/03/01 03:19:32;;;;;;;26.13;9.65;;;;;;;3.81;52.95;101293.13;5001709;28;20048;-81
2022/03/01 03:21:59;;;;;;;22.77;9.85;;;;;;;3.79;53.05;101294.09;4998879;28;20045;-82
2022/03/01 03:24:26;;;;;;;25.00;10.25;;;;;;;3.78;52.98;101295.88;5011174;28;20049;-81
2022/03/01 03:26:55;;;;;;;23.42;10.30;;;;;;;3.74;52.77;101290.78;5003749;28;20045;-82
2022/03/01 03:29:21;;;;;;;23.67;9.95;;;;;;;3.72;52.97;101288.22;5022187;28;20053;-81
2022/03/01 03:31:48;;;;;;;24.25;10.77;;;;;;;3.71;53.47;101297.00;5005535;28;20048;-81
2022/03/01 03:34:15;;;;;;;24.95;10.07;;;;;;;3.70;53.43;101283.03;5021795;28;20044;-82
2022/03/01 03:36:43;;;;;;;22.27;9.70;;;;;;;3.69;53.65;101296.22;5012635;28;20385;-81
2022/03/01 03:39:11;;;;;;;20.17;9.82;;;;;;;3.68;53.63;101294.50;5021560;28;20136;-82
2022/03/01 03:41:38;;;;;;;24.63;10.77;;;;;;;3.66;53.66;101296.31;4992118;28;20043;-81
2022/03/01 03:44:05;;;;;;;21.20;9.38;;;;;;;3.65;53.98;101292.00;5025127;28;20053;-83
2022/03/01 03:46:34;;;;;;;25.23;10.48;;;;;;;3.62;53.80;101297.38;5018768;28;20140;-81
2022/03/01 03:49:01;;;;;;;23.25;9.65;;;;;;;3.62;53.80;101285.09;5013139;28;20045;-81
2022/03/01 03:51:28;;;;;;;24.60;10.55;;;;;;;3.62;53.87;101284.22;5013484;28;20511;-81
2022/03/01 03:53:55;;;;;;;25.42;10.07;;;;;;;3.59;53.87;101287.81;5001130;28;20501;-81
2022/03/01 03:56:22;;;;;;;22.02;9.85;;;;;;;3.57;54.08;101296.66;5000992;28;20047;-81
2022/03/01 03:58:49;;;;;;;20.15;9.65;;;;;;;3.54;53.66;101297.63;5003758;28;20061;-81
2022/03/01 04:01:18;;;;;;;23.05;10.55;;;;;;;3.52;53.83;101303.88;4996970;28;20064;-84
2022/03/01 04:03:45;;;;;;;17.20;8.95;;;;;;;3.50;54.02;101292.53;5003398;28;20076;-81
2022/03/01 04:06:12;;;;;;;20.90;9.15;;;;;;;3.45;53.75;101292.69;5019338;28;20044;-81
2022/03/01 04:08:39;;;;;;;20.95;9.80;;;;;;;3.45;53.80;101290.06;5000192;28;20391;-82
2022/03/01 04:11:06;;;;;;;24.50;10.05;;;;;;;3.41;53.74;101289.34;4986144;28;20225;-82
2022/03/01 04:13:33;;;;;;;27.23;10.57;;;;;;;3.41;53.76;101298.97;5012882;28;20048;-81
2022/03/01 04:16:01;;;;;;;24.42;10.77;;;;;;;3.38;53.83;101292.06;5022181;28;20044;-82
2022/03/01 04:18:28;;;;;;;20.50;10.18;;;;;;;3.38;54.04;101294.69;5012390;28;20037;-81
2022/03/01 04:20:54;;;;;;;22.55;9.93;;;;;;;3.36;54.10;101291.28;4991339;28;20354;-82
2022/03/01 04:23:21;;;;;;;21.38;9.80;;;;;;;3.35;53.98;101284.28;4980788;28;20076;-81
2022/03/01 04:25:48;;;;;;;22.35;10.02;;;;;;;3.34;54.09;101298.34;5021725;28;20049;-81
2022/03/01 04:28:15;;;;;;;21.50;9.35;;;;;;;3.35;54.40;101286.91;5018416;28;20106;-82
2022/03/01 04:30:41;;;;;;;23.13;9.50;;;;;;;3.34;54.10;101293.09;5005706;28;20071;-83
2022/03/01 04:33:08;;;;;;;21.02;9.57;;;;;;;3.34;54.22;101287.84;5008463;28;20044;-82
2022/03/01 04:35:35;;;;;;;19.88;9.05;;;;;;;3.32;53.99;101287.03;5016710;28;20037;-82
2022/03/01 04:38:03;;;;;;;21.42;10.10;;;;;;;3.32;53.84;101292.28;4996621;28;20053;-83
2022/03/01 04:40:30;;;;;;;23.15;9.48;;;;;;;3.30;53.22;101282.75;5022800;28;20053;-81
2022/03/01 04:42:57;;;;;;;22.08;9.63;;;;;;;3.28;52.85;101282.78;4999387;28;20148;-81
2022/03/01 04:45:24;;;;;;;24.38;10.05;;;;;;;3.28;52.51;101289.81;4985066;28;20045;-82
2022/03/01 04:47:51;;;;;;;23.38;9.82;;;;;;;3.24;52.84;101287.28;5008242;28;20138;-81
2022/03/01 04:50:18;;;;;;;25.52;11.23;;;;;;;3.22;53.37;101290.88;5020044;28;20045;-81
2022/03/01 04:52:45;;;;;;;20.48;10.25;;;;;;;3.20;53.50;101290.94;5001000;28;20048;-81
2022/03/01 04:55:17;;;;;;;22.08;9.73;;;;;;;3.16;53.79;101289.34;5006068;28;20067;-81
2022/03/01 04:57:44;;;;;;;24.92;9.77;;;;;;;3.16;53.25;101288.47;5017308;28;20139;-83
2022/03/01 05:00:12;;;;;;;22.38;9.65;;;;;;;3.15;53.14;101289.38;5002553;28;20069;-81
2022/03/01 05:02:41;;;;;;;21.52;10.45;;;;;;;3.14;53.01;101288.53;5012887;28;20041;-82
2022/03/01 05:05:10;;;;;;;19.67;9.55;;;;;;;3.13;52.72;101283.31;5006964;28;20515;-81
2022/03/01 05:07:38;;;;;;;22.98;9.90;;;;;;;3.11;52.74;101282.53;5002750;28;20049;-82
2022/03/01 05:10:07;;;;;;;24.55;10.50;;;;;;;3.08;52.88;101287.88;4990313;28;20065;-83
2022/03/01 05:12:46;;;;;;;24.38;10.27;;;;;;;3.03;52.74;101272.31;5026374;28;20117;-81
2022/03/01 05:15:14;;;;;;;22.73;9.98;;;;;;;3.06;52.54;101273.97;5022736;28;20400;-84
2022/03/01 05:17:43;;;;;;;23.27;10.35;;;;;;;3.04;52.64;101284.50;5003479;28;20036;-81
2022/03/01 05:20:11;;;;;;;20.60;9.30;;;;;;;3.03;52.37;101277.56;5017711;28;20041;-81
2022/03/01 05:22:39;;;;;;;24.17;10.70;;;;;;;3.03;52.10;101280.19;5042345;28;20669;-83
2022/03/01 05:25:10;;;;;;;19.48;10.25;;;;;;;3.00;52.38;101272.38;5011375;28;20036;-81
2022/03/01 05:27:40;;;;;;;20.23;8.88;;;;;;;2.95;52.10;101269.06;4990377;28;20137;-81
2022/03/01 05:30:09;;;;;;;25.30;10.63;;;;;;;2.94;52.19;101273.44;5007968;28;20045;-81
2022/03/01 05:32:39;;;;;;;20.83;9.98;;;;;;;2.93;52.49;101276.16;5023357;28;20107;-81
2022/03/01 05:35:10;;;;;;;22.52;8.43;;;;;;;2.91;52.38;101267.47;5043026;28;20044;-81
2022/03/01 05:37:41;;;;;;;24.40;10.38;;;;;;;2.91;52.27;101275.34;5019503;28;20071;-80
2022/03/01 05:40:09;;;;;;;20.67;9.43;;;;;;;2.88;52.53;101272.81;5014587;28;20064;-77
2022/03/01 05:42:36;;;;;;;20.42;9.55;;;;;;;2.87;52.42;101268.47;5016578;28;20041;-78
2022/03/01 05:45:03;;;;;;;23.67;9.95;;;;;;;2.86;52.43;101275.47;5019567;28;20047;-77
2022/03/01 05:47:31;;;;;;;21.08;10.32;;;;;;;2.83;51.96;101278.22;5049685;28;20163;-78
2022/03/01 05:49:58;;;;;;;21.10;9.43;;;;;;;2.82;52.05;101285.22;4976384;28;20488;-78
2022/03/01 05:52:25;;;;;;;18.83;9.52;;;;;;;2.78;51.89;101283.59;5028855;28;20048;-78
2022/03/01 05:54:51;;;;;;;21.30;9.52;;;;;;;2.77;52.10;101278.41;5032704;28;20050;-79
2022/03/01 05:57:18;;;;;;;26.35;10.07;;;;;;;2.78;52.06;101286.22;5036241;28;20377;-78
2022/03/01 05:59:45;;;;;;;25.55;10.65;;;;;;;2.76;52.31;101285.41;4985919;28;20046;-77
2022/03/01 06:02:11;;;;;;;20.88;9.45;;;;;;;2.74;52.12;101292.47;5002406;28;20615;-76
2022/03/01 06:04:41;;;;;;;20.45;8.77;;;;;;;2.73;52.31;101289.91;5028978;28;20064;-78
2022/03/01 06:07:08;;;;;;;25.42;9.45;;;;;;;2.72;52.20;101289.06;5035263;28;20102;-78
2022/03/01 06:09:34;;;;;;;23.98;9.93;;;;;;;2.71;52.20;101289.09;5019936;28;20049;-78
2022/03/01 06:12:01;;;;;;;24.25;11.38;;;;;;;2.70;52.34;101288.25;5017033;28;20079;-79
2022/03/01 06:14:28;;;;;;;19.45;9.35;;;;;;;2.69;52.18;101289.13;5019242;28;20033;-79
2022/03/01 06:16:55;;;;;;;19.95;9.48;;;;;;;2.68;52.24;101290.06;5035767;28;20451;-78
2022/03/01 06:19:22;;;;;;;22.10;9.27;;;;;;;2.65;52.17;101291.94;5034855;28;20045;-79
2022/03/01 06:21:48;;;;;;;21.35;10.27;;;;;;;2.62;51.93;101300.75;5031764;28;20116;-79
2022/03/01 06:24:15;;;;;;;17.35;8.90;;;;;;;2.59;52.16;101301.69;5017106;28;20099;-79
2022/03/01 06:26:43;;;;;;;25.35;9.73;;;;;;;2.60;51.63;101306.03;5005640;28;20037;-79
2022/03/01 06:29:13;;;;;;;19.27;8.75;;;;;;;2.58;51.86;101310.47;5019367;28;20048;-79
2022/03/01 06:31:41;;;;;;;22.73;9.43;;;;;;;2.58;51.72;101314.88;5003926;28;20535;-78
2022/03/01 06:34:09;;;;;;;20.80;8.73;;;;;;;2.57;51.49;101321.88;5032644;28;20036;-78
2022/03/01 06:36:37;;;;;;;25.15;10.20;;;;;;;2.57;51.68;101324.50;5032899;28;20070;-79
2022/03/01 06:39:03;;;;;;;22.92;9.30;;;;;;;2.54;51.35;101315.84;5010412;28;20564;-79
2022/03/01 06:41:30;;;;;;;23.60;9.80;;;;;;;2.51;51.74;101315.97;5031197;28;20040;-78
2022/03/01 06:43:57;;;;;;;22.80;9.35;;;;;;;2.50;51.55;101322.97;5026082;28;20475;-78
2022/03/01 06:46:25;;;;;;;22.05;9.80;;;;;;;2.49;51.89;101326.47;5031354;28;20044;-79
2022/03/01 06:48:52;;;;;;;23.77;9.90;;;;;;;2.42;51.84;101321.47;5007538;28;20071;-78
2022/03/01 06:51:18;;;;;;;22.40;10.25;;;;;;;2.45;51.95;101330.13;5024208;28;20060;-79
2022/03/01 06:53:45;;;;;;;20.38;10.15;;;;;;;2.46;52.12;101325.72;5010095;28;20041;-79
2022/03/01 06:56:14;;;;;;;22.90;9.95;;;;;;;2.47;52.38;101336.19;5021291;28;20098;-79
2022/03/01 06:58:41;;;;;;;19.38;9.57;;;;;;;2.49;52.37;101330.88;5018095;28;20144;-79
2022/03/01 07:01:09;;;;;;;23.45;10.05;;;;;;;2.48;52.38;101337.88;5033760;28;20041;-79
2022/03/01 07:03:39;;;;;;;24.92;10.90;;;;;;;2.50;52.38;101345.72;5036191;28;20049;-78
2022/03/01 07:06:06;;;;;;;25.42;10.77;;;;;;;2.51;52.43;101344.81;5005506;28;20084;-78
2022/03/01 07:08:33;;;;;;;20.77;9.60;;;;;;;2.52;52.37;101350.00;5015611;28;20132;-80
2022/03/01 07:11:00;;;;;;;21.05;10.15;;;;;;;2.53;52.26;101358.72;5006965;28;20044;-78
2022/03/01 07:13:27;;;;;;;22.88;9.57;;;;;;;2.53;52.26;101354.34;5032900;28;20424;-78
2022/03/01 07:15:56;;;;;;;19.60;8.73;;;;;;;2.54;52.46;101352.56;5018688;28;20045;-79
2022/03/01 07:18:24;;;;;;;24.50;10.10;;;;;;;2.55;52.57;101346.44;4994353;28;20573;-80
2022/03/01 07:20:50;;;;;;;20.80;9.93;;;;;;;2.55;52.45;101354.31;5041854;28;20132;-79
2022/03/01 07:23:17;;;;;;;27.92;10.90;;;;;;;2.54;52.74;101358.66;5001977;28;20098;-79
2022/03/01 07:25:44;;;;;;;22.65;10.20;;;;;;;2.56;52.63;101350.75;5030328;28;20049;-78
2022/03/01 07:28:10;;;;;;;21.75;9.57;;;;;;;2.56;52.69;101353.38;5016402;28;20033;-78
2022/03/01 07:30:37;;;;;;;24.70;9.98;;;;;;;2.51;52.50;101350.91;5015796;28;20056;-79
2022/03/01 07:33:04;;;;;;;29.83;10.63;;;;;;;2.54;52.88;101360.44;5037394;28;20069;-78
2022/03/01 07:35:32;;;;;;;20.50;9.75;;;;;;;2.51;52.77;101357.91;5033645;28;20122;-78
2022/03/01 07:37:58;;;;;;;26.80;11.55;;;;;;;2.51;52.91;101348.28;5032958;28;20930;-78
2022/03/01 07:40:26;;;;;;;23.42;10.93;;;;;;;2.51;52.90;101353.53;5027326;28;20055;-77
2022/03/01 07:42:54;;;;;;;25.88;11.00;;;;;;;2.56;53.03;101348.13;5015301;28;20048;-78
2022/03/01 07:45:21;;;;;;;20.45;9.93;;;;;;;2.48;52.31;101352.78;5032945;28;20384;-79
2022/03/01 07:47:50;;;;;;;20.13;9.50;;;;;;;2.52;52.67;101344.75;5037009;28;20155;-78
2022/03/01 07:50:16;;;;;;;22.30;11.27;;;;;;;2.53;52.34;101353.47;5008914;28;20116;-78
2022/03/01 07:52:43;;;;;;;25.17;10.18;;;;;;;2.59;52.62;101355.91;5000266;28;20155;-78
2022/03/01 07:55:10;;;;;;;20.17;9.85;;;;;;;2.58;52.55;101351.56;5011664;28;20514;-78
2022/03/01 07:57:37;;;;;;;23.17;10.38;;;;;;;2.60;52.08;101347.16;5044203;28;20434;-78
2022/03/01 08:00:05;;;;;;;19.08;10.02;;;;;;;2.64;52.33;101345.28;5050727;28;20136;-79
2022/03/01 08:02:39;;;;;;;20.27;9.98;;;;;;;2.66;52.24;101343.47;5023485;28;20061;-78
2022/03/01 08:05:08;;;;;;;20.48;9.82;;;;;;;2.67;52.45;101338.19;5016882;28;20077;-77
2022/03/01 08:07:47;;;;;;;21.92;9.45;;;;;;;2.68;52.18;101333.78;5020272;28;20043;-78
2022/03/01 08:10:14;;;;;;;20.00;10.02;;;;;;;2.70;52.25;101332.84;5018992;28;20048;-78
2022/03/01 08:12:41;;;;;;;21.63;9.82;;;;;;;2.69;52.25;101331.09;4998419;28;21217;-79
2022/03/01 08:15:09;;;;;;;18.60;9.85;;;;;;;2.73;52.55;101332.75;5019831;28;20044;-79
2022/03/01 08:17:36;;;;;;;18.05;8.45;;;;;;;2.74;52.40;101333.59;5019522;28;20049;-79
2022/03/01 08:20:03;;;;;;;16.23;8.05;;;;;;;2.78;51.90;101329.97;5001974;28;20050;-78
2022/03/01 08:22:30;;;;;;;18.70;9.25;;;;;;;2.78;51.57;101328.19;5032388;28;20041;-78
2022/03/01 08:24:57;;;;;;;17.58;8.73;;;;;;;2.78;51.60;101328.19;5007794;28;20040;-79
2022/03/01 08:27:24;;;;;;;17.23;8.00;;;;;;;2.77;50.86;101329.13;5031508;28;20530;-78
2022/03/01 08:29:52;;;;;;;16.98;7.75;;;;;;;2.78;51.21;101327.34;5023990;28;20072;-78
2022/03/01 08:32:19;;;;;;;19.92;8.60;;;;;;;2.75;51.24;101319.59;5020500;28;20128;-79
2022/03/01 08:34:47;;;;;;;15.90;8.13;;;;;;;2.78;51.28;101327.34;5023496;28;20397;-78
2022/03/01 08:37:14;;;;;;;17.75;8.27;;;;;;;2.81;51.55;101328.09;5023194;28;20507;-78
2022/03/01 08:39:40;;;;;;;18.75;8.02;;;;;;;2.81;51.65;101325.47;5039432;28;20086;-79
2022/03/01 08:42:07;;;;;;;16.10;7.30;;;;;;;2.86;51.00;101317.47;5004652;28;20580;-78
2022/03/01 08:44:34;;;;;;;18.65;8.38;;;;;;;2.83;51.05;101312.31;5033283;28;20041;-78
2022/03/01 08:47:01;;;;;;;18.42;8.63;;;;;;;2.83;51.19;101317.56;5006883;28;20099;-78
2022/03/01 08:49:28;;;;;;;11.38;6.80;;;;;;;2.83;50.98;101322.81;5016373;28;20048;-78
2022/03/01 08:51:55;;;;;;;13.48;6.68;;;;;;;2.83;50.81;101315.78;5007772;28;20057;-78
2022/03/01 08:54:23;;;;;;;17.63;7.85;;;;;;;2.82;50.53;101314.09;5035364;28;20534;-78
2022/03/01 08:56:50;;;;;;;16.98;8.20;;;;;;;2.86;50.66;101311.34;5033917;28;20040;-78
2022/03/01 08:59:18;;;;;;;13.55;6.78;;;;;;;2.84;49.81;101311.41;4999826;28;20049;-79
2022/03/01 09:01:44;;;;;;;12.75;6.50;;;;;;;2.82;49.49;101311.47;5021990;28;20045;-79
2022/03/01 09:04:11;;;;;;;14.48;7.28;;;;;;;2.82;49.34;101310.59;5005119;28;20515;-79
2022/03/01 09:06:39;;;;;;;17.90;7.18;;;;;;;2.85;49.87;101307.00;5010043;28;20114;-79
2022/03/01 09:09:06;;;;;;;12.43;6.72;;;;;;;2.93;49.39;101307.63;5018100;28;20044;-78
2022/03/01 09:11:33;;;;;;;16.20;7.53;;;;;;;2.90;49.04;101310.34;4999419;28;20048;-78
2022/03/01 09:14:00;;;;;;;13.18;7.38;;;;;;;2.90;48.13;101310.34;5017786;28;20037;-79
2022/03/01 09:16:27;;;;;;;13.73;6.57;;;;;;;2.92;49.08;101308.53;5018749;28;20044;-78
2022/03/01 09:18:53;;;;;;;12.02;6.60;;;;;;;2.91;49.29;101301.56;5001787;28;20055;-78
2022/03/01 09:21:20;;;;;;;14.23;6.78;;;;;;;2.94;49.15;101301.47;5029993;28;20052;-77
2022/03/01 09:23:47;;;;;;;13.35;7.30;;;;;;;2.96;49.81;101297.03;4997459;28;20047;-79
2022/03/01 09:26:15;;;;;;;10.82;5.88;;;;;;;2.97;49.56;101296.09;5002130;28;20045;-78
2022/03/01 09:28:43;;;;;;;13.80;6.82;;;;;;;2.96;49.31;101295.25;5022846;28;20372;-79
2022/03/01 09:31:10;;;;;;;16.15;6.88;;;;;;;3.01;49.29;101289.84;5029471;28;20037;-79
2022/03/01 09:33:42;;;;;;;16.17;6.75;;;;;;;3.05;49.18;101288.81;5008675;28;20631;-77
2022/03/01 09:36:11;;;;;;;12.43;6.57;;;;;;;3.02;49.04;101292.41;5036186;28;20052;-78
2022/03/01 09:38:41;;;;;;;11.73;5.95;;;;;;;3.06;49.73;101290.56;5019285;28;20123;-79
2022/03/01 09:41:08;;;;;;;12.85;6.18;;;;;;;3.12;49.04;101285.09;5012947;28;20045;-78
2022/03/01 09:43:37;;;;;;;12.13;6.55;;;;;;;3.21;48.82;101284.78;5024496;28;20045;-79
2022/03/01 09:46:06;;;;;;;13.32;6.57;;;;;;;3.19;48.50;101281.34;5029021;28;20052;-79
2022/03/01 09:48:34;;;;;;;14.70;6.38;;;;;;;3.18;48.49;101281.38;5022971;28;20052;-79
2022/03/01 09:51:03;;;;;;;12.60;6.40;;;;;;;3.17;48.23;101271.81;5033599;28;20168;-78
2022/03/01 09:53:30;;;;;;;13.10;6.80;;;;;;;3.20;48.60;101271.69;5039413;28;20582;-79
2022/03/01 09:55:59;;;;;;;11.98;6.00;;;;;;;3.23;48.78;101279.47;5010247;28;20060;-79
2022/03/01 09:58:26;;;;;;;14.40;6.45;;;;;;;3.41;47.91;101275.34;5028123;28;20045;-79
2022/03/01 10:00:53;;;;;;;13.68;6.38;;;;;;;3.28;48.52;101271.44;5013408;28;20045;-79
2022/03/01 10:03:20;;;;;;;11.38;6.25;;;;;;;3.44;47.73;101277.88;5035611;28;20056;-79
2022/03/01 10:05:49;;;;;;;13.75;7.07;;;;;;;3.36;47.53;101272.91;5018901;28;20036;-79
2022/03/01 10:08:20;;;;;;;13.50;6.43;;;;;;;3.37;47.85;101266.72;5021647;28;20049;-81
2022/03/01 10:10:50;;;;;;;12.98;6.35;;;;;;;3.34;47.18;101273.84;5031005;28;20106;-79
2022/03/01 10:13:27;;;;;;;11.45;6.03;;;;;;;3.40;45.88;101271.00;5040069;28;20064;-82
2022/03/01 10:16:09;;;;;;;11.77;6.20;;;;;;;3.33;44.53;101262.47;5035183;28;20049;-78
2022/03/01 10:18:50;;;;;;;13.20;6.25;;;;;;;3.35;45.24;101257.19;5009521;28;20128;-79
2022/03/01 10:21:16;;;;;;;12.30;6.43;;;;;;;3.35;46.39;101262.44;4997354;28;20052;-79
2022/03/01 10:23:48;;;;;;;10.13;5.47;;;;;;;3.50;45.94;101261.03;5031124;28;20044;-79
2022/03/01 10:26:21;;;;;;;13.90;6.28;;;;;;;3.40;45.04;101255.25;5001425;28;20412;-79
2022/03/01 10:28:50;;;;;;;9.43;5.15;;;;;;;3.50;44.70;101256.63;5006043;28;20053;-78
2022/03/01 10:31:18;;;;;;;13.15;5.90;;;;;;;3.54;44.74;101255.63;5023893;28;20047;-79
2022/03/01 10:34:02;;;;;;;12.68;6.97;;;;;;;3.46;44.38;101255.91;5019877;28;20045;-79
2022/03/01 10:36:32;;;;;;;14.20;6.28;;;;;;;3.48;45.92;101246.16;4995064;28;20046;-78
2022/03/01 10:39:11;;;;;;;12.55;5.97;;;;;;;3.48;44.63;101246.16;5017933;28;20079;-79
2022/03/01 10:41:42;;;;;;;13.52;6.78;;;;;;;3.54;45.00;101250.38;5023448;28;20128;-79
2022/03/01 10:44:17;;;;;;;12.68;5.85;;;;;;;3.52;44.60;101232.94;5035534;28;20037;-78
2022/03/01 10:46:52;;;;;;;11.40;5.35;;;;;;;3.68;44.59;101234.09;5022659;28;20493;-79
2022/03/01 10:49:24;;;;;;;9.93;5.53;;;;;;;3.64;44.41;101232.50;5017073;28;20044;-79
2022/03/01 10:52:08;;;;;;;12.23;6.05;;;;;;;3.59;45.11;101227.41;5005264;28;20044;-81
2022/03/01 10:54:36;;;;;;;10.70;5.93;;;;;;;3.56;44.63;101227.53;5012731;28;20052;-78
2022/03/01 10:57:05;;;;;;;13.00;5.63;;;;;;;3.60;45.18;101225.63;5019395;28;20048;-80
2022/03/01 10:59:34;;;;;;;11.18;6.28;;;;;;;3.83;44.02;101225.63;5039635;28;20800;-81
2022/03/01 11:02:01;;;;;;;11.75;5.38;;;;;;;3.73;44.79;101228.66;5029746;28;20059;-79
2022/03/01 11:04:28;;;;;;;13.63;5.88;;;;;;;3.81;44.68;101223.97;5021256;28;20068;-78
2022/03/01 11:06:59;;;;;;;9.75;5.30;;;;;;;3.79;44.02;101225.78;5015687;28;20158;-77
2022/03/01 11:09:29;;;;;;;8.18;5.40;;;;;;;3.77;43.93;101217.97;5004420;28;20052;-79
2022/03/01 11:11:59;;;;;;;11.75;5.43;;;;;;;3.76;43.93;101224.13;5020478;28;20389;-79
2022/03/01 11:14:47;;;;;;;9.93;5.90;;;;;;;3.84;43.50;101215.97;5038437;28;20065;-79
2022/03/01 11:17:33;;;;;;;10.02;5.38;;;;;;;3.84;43.80;101214.22;5029237;28;20037;-79
2022/03/01 11:20:23;;;;;;;12.70;7.38;;;;;;;3.88;43.18;101194.78;5019148;28;20043;-79
2022/03/01 11:22:56;;;;;;;11.95;6.22;;;;;;;3.85;43.41;101204.56;4987006;28;20099;-78
2022/03/01 11:25:25;;;;;;;14.18;5.65;;;;;;;4.01;43.37;101200.41;5027001;28;20037;-78